Time;durP1;ratioP1;P1;durP2;ratioP2;P2;SDS_P1;SDS_P2;PMS_P1;PMS_P2;Temp;Humidity;BMP_temperature;BMP_pressure;BME280_temperature;BME280_humidity;BME280_pressure;Samples;Min_cycle;Max_cycle;Signal;HPM_P1;HPM_P2
2021/09/04 00:01:22;;;;;;;11.50;7.20;;;;;;;14.58;50.20;100633.17;117329;1182;21835;-69
2021/09/04 00:03:51;;;;;;;13.70;7.00;;;;;;;14.58;50.24;100634.94;117385;1181;23554;-69
2021/09/04 00:06:19;;;;;;;12.90;7.10;;;;;;;14.57;50.28;100636.05;117284;1182;23440;-58
2021/09/04 00:08:48;;;;;;;13.70;7.30;;;;;;;14.56;50.31;100633.59;117360;1185;23535;-69
2021/09/04 00:11:16;;;;;;;11.00;6.40;;;;;;;14.55;50.22;100633.26;117455;1179;21855;-58
2021/09/04 00:13:57;;;;;;;13.90;6.70;;;;;;;14.53;50.20;100634.70;117357;1182;23443;-68
2021/09/04 00:16:26;;;;;;;9.40;6.10;;;;;;;14.49;50.33;100634.98;117413;1185;21861;-58
2021/09/04 00:19:14;;;;;;;11.80;6.60;;;;;;;14.45;50.39;100632.10;117349;1185;21855;-68
2021/09/04 00:21:44;;;;;;;;;;;;;;;14.41;50.36;100633.40;117333;1184;23517;-58
2021/09/04 00:24:13;;;;;;;9.80;6.20;;;;;;;14.38;50.49;100631.36;117426;1184;21957;-57
2021/09/04 00:26:41;;;;;;;8.80;5.50;;;;;;;14.36;50.64;100629.11;117397;1185;22155;-57
2021/09/04 00:29:10;;;;;;;11.10;5.90;;;;;;;14.38;50.67;100628.55;117371;1184;21988;-58
2021/09/04 00:31:38;;;;;;;11.10;5.60;;;;;;;14.39;50.87;100630.27;117390;1178;21855;-58
2021/09/04 00:34:06;;;;;;;8.10;5.50;;;;;;;14.39;51.01;100629.23;117353;1184;21911;-58
2021/09/04 00:36:35;;;;;;;11.80;5.60;;;;;;;14.34;51.01;100627.24;117396;1185;21867;-69
2021/09/04 00:39:03;;;;;;;9.00;5.70;;;;;;;14.32;51.03;100624.98;117385;1179;21842;-69
2021/09/04 00:41:34;;;;;;;9.40;5.60;;;;;;;14.30;51.08;100625.91;117377;1184;23452;-58
2021/09/04 00:44:04;;;;;;;9.00;5.70;;;;;;;14.25;51.13;100622.15;117330;1185;24159;-58
2021/09/04 00:46:32;;;;;;;10.30;5.70;;;;;;;14.24;51.18;100624.11;117356;1185;22919;-69
2021/09/04 00:49:01;;;;;;;14.00;5.80;;;;;;;14.23;51.34;100623.06;117474;1176;23625;-70
2021/09/04 00:51:30;;;;;;;9.00;6.00;;;;;;;14.22;51.25;100617.09;117326;1184;21874;-57
2021/09/04 00:53:58;;;;;;;8.90;5.80;;;;;;;14.22;51.40;100614.98;117163;1187;23445;-69
2021/09/04 00:56:26;;;;;;;11.40;5.30;;;;;;;14.21;51.24;100612.54;117404;1184;23452;-58
2021/09/04 00:58:54;;;;;;;14.70;6.60;;;;;;;14.19;51.37;100611.34;117167;1186;21896;-69
2021/09/04 01:01:24;;;;;;;10.50;6.10;;;;;;;14.17;51.34;100608.91;117366;1185;23465;-58
2021/09/04 01:03:53;;;;;;;10.80;6.60;;;;;;;14.16;51.47;100605.95;117125;1178;21909;-58
2021/09/04 01:06:21;;;;;;;11.30;5.50;;;;;;;14.11;51.54;100602.18;117401;1176;21842;-68
2021/09/04 01:08:52;;;;;;;9.70;5.90;;;;;;;14.08;51.49;100597.85;117034;1187;23458;-69
2021/09/04 01:11:20;;;;;;;12.90;5.60;;;;;;;14.10;51.63;100599.91;117371;1185;21981;-69
2021/09/04 01:13:49;;;;;;;10.90;5.60;;;;;;;14.11;51.55;100596.53;117178;1187;23441;-69
2021/09/04 01:16:18;;;;;;;9.20;5.70;;;;;;;14.11;51.60;100595.11;117358;1185;23529;-58
2021/09/04 01:18:47;;;;;;;10.00;5.40;;;;;;;14.09;51.73;100594.65;117251;1183;22919;-68
2021/09/04 01:21:15;;;;;;;10.70;6.00;;;;;;;14.07;51.66;100593.80;117339;1182;21873;-68
2021/09/04 01:23:44;;;;;;;10.50;5.70;;;;;;;14.06;51.63;100592.77;117368;1185;23466;-69
2021/09/04 01:26:12;;;;;;;8.70;5.20;;;;;;;14.09;51.65;100590.23;117363;1181;21856;-57
2021/09/04 01:28:41;;;;;;;10.00;6.00;;;;;;;14.07;51.64;100589.23;117319;1185;24151;-69
2021/09/04 01:31:09;;;;;;;8.70;5.50;;;;;;;14.09;51.54;100585.46;117388;1185;23463;-58
2021/09/04 01:33:43;;;;;;;12.00;5.50;;;;;;;14.10;51.70;100585.25;117409;1182;21830;-58
2021/09/04 01:36:12;;;;;;;8.30;5.40;;;;;;;14.11;51.63;100585.06;117427;1185;21841;-68
2021/09/04 01:38:40;;;;;;;8.70;5.20;;;;;;;14.10;51.70;100581.73;117392;1180;21857;-68
2021/09/04 01:41:08;;;;;;;11.00;5.80;;;;;;;14.11;51.72;100581.35;117382;1182;21859;-62
2021/09/04 01:43:39;;;;;;;8.00;5.40;;;;;;;14.10;51.65;100576.98;117408;1185;24319;-57
2021/09/04 01:46:07;;;;;;;11.00;5.50;;;;;;;14.13;51.79;100577.93;117154;1180;21897;-57
2021/09/04 01:48:36;;;;;;;11.10;5.70;;;;;;;14.14;51.67;100578.11;117413;1185;22962;-57
2021/09/04 01:51:04;;;;;;;11.20;5.70;;;;;;;14.15;51.75;100573.85;117474;1185;21842;-59
2021/09/04 01:53:32;;;;;;;16.50;5.90;;;;;;;14.13;51.76;100574.23;117453;1188;21855;-58
2021/09/04 01:56:02;;;;;;;12.20;5.90;;;;;;;14.13;51.76;100574.08;117424;1183;23621;-57
2021/09/04 01:58:30;;;;;;;15.30;6.40;;;;;;;14.14;51.65;100575.27;117306;1185;21897;-58
2021/09/04 02:00:59;;;;;;;11.50;6.10;;;;;;;14.13;51.79;100571.94;117332;1186;21857;-58
2021/09/04 02:03:27;;;;;;;13.20;5.70;;;;;;;14.07;51.79;100569.09;117430;1185;21844;-68
2021/09/04 02:05:56;;;;;;;11.80;6.40;;;;;;;14.04;51.86;100568.81;117377;1182;22705;-68
2021/09/04 02:08:43;;;;;;;9.90;5.40;;;;;;;14.01;51.96;100564.48;117329;1185;22162;-57
2021/09/04 02:11:12;;;;;;;9.40;5.60;;;;;;;13.98;52.08;100565.08;117422;1185;21863;-68
2021/09/04 02:13:40;;;;;;;9.90;5.30;;;;;;;13.98;52.08;100563.14;117330;1185;23458;-69
2021/09/04 02:16:09;;;;;;;11.60;5.90;;;;;;;13.96;51.88;100562.98;117355;1186;23440;-57
2021/09/04 02:18:49;;;;;;;10.50;5.40;;;;;;;13.96;52.13;100565.30;117351;1185;23462;-68
2021/09/04 02:21:17;;;;;;;13.20;5.70;;;;;;;13.96;52.10;100562.46;117397;1185;21840;-69
2021/09/04 02:23:46;;;;;;;11.40;5.50;;;;;;;13.96;52.11;100563.70;117337;1185;21853;-58
2021/09/04 02:26:14;;;;;;;8.50;5.20;;;;;;;13.97;52.19;100560.67;117397;1184;21851;-57
2021/09/04 02:28:42;;;;;;;9.10;5.30;;;;;;;13.97;52.24;100562.43;117364;1185;23532;-67
2021/09/04 02:31:11;;;;;;;11.90;5.40;;;;;;;14.01;52.04;100559.52;117311;1185;22918;-69
2021/09/04 02:33:39;;;;;;;12.30;5.80;;;;;;;14.09;52.24;100561.30;117392;1184;21860;-58
2021/09/04 02:36:11;;;;;;;8.80;5.30;;;;;;;14.07;52.17;100560.63;117110;1184;21853;-58
2021/09/04 02:38:41;;;;;;;9.30;4.80;;;;;;;13.98;52.30;100558.55;117394;1185;21850;-58
2021/09/04 02:41:09;;;;;;;8.90;4.70;;;;;;;13.95;52.37;100559.14;117458;1180;21892;-70
2021/09/04 02:43:37;;;;;;;9.30;5.40;;;;;;;13.91;52.38;100559.59;117362;1185;21855;-69
2021/09/04 02:46:05;;;;;;;8.10;5.00;;;;;;;13.89;52.46;100561.24;117381;1185;23463;-57
2021/09/04 02:48:34;;;;;;;10.40;5.70;;;;;;;13.90;52.41;100560.48;117454;1182;22945;-70
2021/09/04 02:51:22;;;;;;;11.20;5.30;;;;;;;13.90;52.59;100555.73;117368;1185;22983;-59
2021/09/04 02:53:52;;;;;;;8.90;4.90;;;;;;;13.93;52.75;100554.96;117408;1184;23466;-70
2021/09/04 02:56:20;;;;;;;8.50;4.90;;;;;;;13.99;52.74;100555.54;117355;1176;22726;-58
2021/09/04 02:58:49;;;;;;;28.50;5.70;;;;;;;14.10;52.50;100551.73;117400;1185;21975;-58
2021/09/04 03:01:17;;;;;;;11.20;5.00;;;;;;;14.29;52.10;100546.16;117390;1183;22932;-58
2021/09/04 03:03:58;;;;;;;12.10;5.60;;;;;;;14.17;52.43;100549.80;117326;1182;22002;-71
2021/09/04 03:06:26;;;;;;;9.40;4.70;;;;;;;14.16;52.56;100554.06;117301;1188;22920;-71
2021/09/04 03:08:54;;;;;;;11.10;5.40;;;;;;;14.16;52.60;100554.96;117340;1185;23079;-70
2021/09/04 03:11:28;;;;;;;16.10;5.00;;;;;;;14.13;52.47;100558.73;117412;1183;23535;-71
2021/09/04 03:13:58;;;;;;;26.70;6.50;;;;;;;14.08;52.32;100560.06;117376;1185;23439;-58
2021/09/04 03:16:27;;;;;;;14.80;6.20;;;;;;;14.03;52.23;100560.02;117410;1186;21855;-57
2021/09/04 03:18:55;;;;;;;13.90;5.80;;;;;;;13.94;52.41;100561.46;117324;1181;21918;-58
2021/09/04 03:21:24;;;;;;;18.70;7.00;;;;;;;13.91;52.37;100562.43;117334;1185;21855;-71
2021/09/04 03:23:53;;;;;;;10.60;5.30;;;;;;;13.87;52.50;100562.88;117293;1186;23465;-70
2021/09/04 03:26:21;;;;;;;22.90;6.30;;;;;;;13.83;52.50;100564.36;117452;1182;23460;-70
2021/09/04 03:28:50;;;;;;;33.30;6.70;;;;;;;13.82;52.46;100564.92;117298;1185;23494;-57
2021/09/04 03:31:18;;;;;;;28.50;6.80;;;;;;;13.81;52.51;100569.69;117308;1185;22916;-71
2021/09/04 03:33:47;;;;;;;27.50;5.80;;;;;;;13.77;52.52;100572.42;117398;1187;21847;-58
2021/09/04 03:36:15;;;;;;;16.50;5.90;;;;;;;13.77;52.63;100573.14;117336;1185;21851;-57
2021/09/04 03:38:44;;;;;;;16.20;5.70;;;;;;;13.75;52.80;100576.52;117451;1183;21844;-58
2021/09/04 03:41:12;;;;;;;15.80;6.30;;;;;;;13.81;52.82;100572.52;117413;1184;23638;-58
2021/09/04 03:43:44;;;;;;;16.90;6.50;;;;;;;13.85;52.84;100570.67;117342;1186;21870;-70
2021/09/04 03:46:12;;;;;;;18.90;5.70;;;;;;;13.87;52.86;100569.05;117272;1186;23466;-71
2021/09/04 03:48:41;;;;;;;46.20;6.80;;;;;;;13.90;53.00;100567.22;117480;1185;23459;-59
2021/09/04 03:51:09;;;;;;;17.60;6.20;;;;;;;13.97;52.82;100573.56;117372;1185;21845;-59
2021/09/04 03:53:37;;;;;;;19.30;5.10;;;;;;;14.01;52.90;100579.48;117352;1185;23443;-70
2021/09/04 03:56:05;;;;;;;18.60;5.20;;;;;;;14.05;53.00;100583.96;117292;1186;21904;-58
2021/09/04 03:58:34;;;;;;;16.80;5.50;;;;;;;14.11;52.98;100585.79;117480;1184;22917;-64
2021/09/04 04:01:03;;;;;;;12.40;5.50;;;;;;;14.15;52.93;100585.31;117343;1188;21838;-71
2021/09/04 04:03:31;;;;;;;19.00;4.60;;;;;;;14.16;53.22;100581.93;117401;1185;23471;-58
2021/09/04 04:06:00;;;;;;;14.20;5.20;;;;;;;14.24;53.32;100583.87;117458;1183;22915;-58
2021/09/04 04:08:28;;;;;;;13.80;5.30;;;;;;;14.31;53.26;100584.44;117343;1176;22419;-58
2021/09/04 04:11:06;;;;;;;17.10;5.70;;;;;;;14.38;53.28;100584.59;117356;1184;21854;-58
2021/09/04 04:13:38;;;;;;;16.50;4.90;;;;;;;14.43;53.32;100585.71;117383;1185;23466;-59
2021/09/04 04:16:07;;;;;;;10.70;4.90;;;;;;;14.51;53.37;100586.21;117337;1186;21857;-71
2021/09/04 04:18:35;;;;;;;10.60;4.90;;;;;;;14.61;53.42;100581.19;117404;1185;23544;-68
2021/09/04 04:21:03;;;;;;;14.80;5.30;;;;;;;14.65;53.36;100582.13;117409;1185;21857;-65
2021/09/04 04:23:32;;;;;;;29.30;6.80;;;;;;;14.85;53.21;100587.49;117430;1184;23456;-59
2021/09/04 04:26:01;;;;;;;16.50;5.10;;;;;;;15.06;52.97;100584.63;117412;1185;23517;-58
2021/09/04 04:28:33;;;;;;;8.70;4.70;;;;;;;15.13;53.04;100589.73;117379;1182;21855;-57
2021/09/04 04:31:02;;;;;;;11.80;4.50;;;;;;;15.23;52.79;100583.81;117455;1185;22917;-68
2021/09/04 04:33:30;;;;;;;11.60;4.60;;;;;;;15.32;52.64;100575.07;117402;1185;21861;-58
2021/09/04 04:36:09;;;;;;;16.10;5.60;;;;;;;15.43;52.39;100581.48;117433;1182;24225;-68
2021/09/04 04:38:38;;;;;;;17.60;5.20;;;;;;;15.51;52.35;100586.03;117287;1186;23452;-68
2021/09/04 04:41:07;;;;;;;44.20;7.50;;;;;;;15.48;52.41;100582.73;117357;1185;21861;-58
2021/09/04 04:43:36;;;;;;;31.80;6.20;;;;;;;15.61;52.23;100582.35;117334;1176;23441;-58
2021/09/04 04:46:05;;;;;;;22.50;5.60;;;;;;;15.65;52.12;100577.83;117270;1185;23544;-58
2021/09/04 04:48:33;;;;;;;25.20;6.10;;;;;;;15.63;52.13;100580.36;117343;1185;21854;-62
2021/09/04 04:51:02;;;;;;;17.30;5.10;;;;;;;15.65;52.20;100579.77;117242;1182;22834;-58
2021/09/04 04:53:31;;;;;;;33.80;6.30;;;;;;;15.66;52.29;100578.48;117272;1185;21845;-67
2021/09/04 04:56:02;;;;;;;15.80;6.20;;;;;;;15.72;52.20;100573.86;117387;1185;23451;-68
2021/09/04 04:58:31;;;;;;;;;;;;;;;15.77;52.12;100575.33;117326;1182;22967;-68
2021/09/04 05:01:00;;;;;;;18.50;5.70;;;;;;;15.83;52.17;100574.60;117351;1186;21842;-58
2021/09/04 05:03:29;;;;;;;13.80;4.70;;;;;;;15.93;52.36;100578.41;117110;1182;23895;-58
2021/09/04 05:05:59;;;;;;;16.00;4.60;;;;;;;15.93;52.62;100585.11;117364;1185;23463;-59
2021/09/04 05:08:27;;;;;;;18.50;5.30;;;;;;;16.08;52.76;100580.94;117286;1185;21898;-68
2021/09/04 05:10:56;;;;;;;16.10;4.60;;;;;;;16.28;52.39;100580.30;117381;1185;23446;-69
2021/09/04 05:13:41;;;;;;;12.50;4.30;;;;;;;16.46;52.43;100578.29;117338;1183;23468;-69
2021/09/04 05:16:11;;;;;;;12.20;4.80;;;;;;;16.60;52.19;100579.75;117348;1186;23440;-69
2021/09/04 05:18:42;;;;;;;12.20;4.80;;;;;;;16.78;52.09;100581.11;117330;1181;22619;-70
2021/09/04 05:21:10;;;;;;;13.10;3.80;;;;;;;16.96;52.06;100577.85;117289;1185;21865;-69
2021/09/04 05:23:38;;;;;;;13.60;10.10;;;;;;;17.15;52.05;100576.45;117239;1183;21867;-62
2021/09/04 05:26:08;;;;;;;22.70;10.00;;;;;;;17.35;51.91;100574.67;117265;1185;22944;-68
2021/09/04 05:28:37;;;;;;;15.10;8.00;;;;;;;17.52;52.05;100574.37;117339;1185;21989;-58
2021/09/04 05:31:05;;;;;;;9.30;4.20;;;;;;;17.72;51.91;100569.54;117345;1185;23232;-67
2021/09/04 05:33:34;;;;;;;6.80;3.80;;;;;;;17.94;51.06;100568.52;117274;1186;22630;-59
2021/09/04 05:36:02;;;;;;;11.00;3.90;;;;;;;18.15;50.78;100569.98;117325;1185;21864;-68
2021/09/04 05:38:31;;;;;;;8.10;3.80;;;;;;;18.38;50.45;100566.40;117345;1186;22159;-59
2021/09/04 05:40:59;;;;;;;11.70;4.00;;;;;;;18.59;50.14;100561.06;117304;1186;21857;-68
2021/09/04 05:43:27;;;;;;;11.10;3.90;;;;;;;18.86;50.30;100562.21;117281;1185;23552;-58
2021/09/04 05:45:55;;;;;;;8.00;3.70;;;;;;;19.08;49.74;100563.05;117345;1185;23461;-58
2021/09/04 05:48:25;;;;;;;14.40;3.90;;;;;;;19.27;49.44;100551.20;117318;1185;22320;-67
2021/09/04 05:50:53;;;;;;;9.60;3.90;;;;;;;19.40;49.49;100550.55;117400;1182;22917;-66
2021/09/04 05:53:21;;;;;;;9.00;4.00;;;;;;;19.58;49.27;100543.90;117386;1186;21864;-68
2021/09/04 05:55:49;;;;;;;7.30;3.40;;;;;;;19.79;48.54;100541.63;117353;1184;23462;-58
2021/09/04 05:58:17;;;;;;;6.40;3.30;;;;;;;19.97;48.43;100542.37;117406;1184;21854;-68
2021/09/04 06:00:51;;;;;;;9.60;3.60;;;;;;;20.18;48.68;100536.92;117409;1185;23474;-59
2021/09/04 06:03:20;;;;;;;12.40;3.90;;;;;;;20.39;48.68;100534.95;117408;1183;21905;-67
2021/09/04 06:05:48;;;;;;;9.40;4.10;;;;;;;20.59;48.45;100534.84;117407;1180;23612;-68
2021/09/04 06:08:17;;;;;;;8.70;3.40;;;;;;;20.77;48.09;100538.74;117391;1185;21856;-59
2021/09/04 06:10:46;;;;;;;12.40;3.80;;;;;;;20.94;48.00;100535.02;117437;1183;22934;-58
2021/09/04 06:13:14;;;;;;;8.70;3.70;;;;;;;21.16;47.59;100532.94;117428;1185;21861;-67
2021/09/04 06:15:43;;;;;;;7.90;3.60;;;;;;;21.37;47.72;100531.64;117450;1184;23463;-59
2021/09/04 06:18:31;;;;;;;6.60;3.30;;;;;;;21.61;47.33;100530.36;117360;1185;22025;-67
2021/09/04 06:21:00;;;;;;;6.30;3.30;;;;;;;21.77;46.93;100529.45;117406;1183;23461;-59
2021/09/04 06:23:28;;;;;;;7.90;3.50;;;;;;;21.91;47.24;100531.15;117398;1183;21884;-64
2021/09/04 06:25:58;;;;;;;8.90;3.20;;;;;;;22.09;46.98;100533.02;117396;1182;23581;-67
2021/09/04 06:28:26;;;;;;;10.30;3.60;;;;;;;22.25;46.54;100526.86;117371;1186;23241;-66
2021/09/04 06:30:54;;;;;;;8.90;3.40;;;;;;;22.44;46.55;100526.13;117442;1185;21867;-60
2021/09/04 06:33:24;;;;;;;7.20;3.10;;;;;;;22.61;46.46;100523.20;117349;1189;23469;-59
2021/09/04 06:35:52;;;;;;;8.40;3.80;;;;;;;22.75;46.39;100520.77;117415;1185;23469;-59
2021/09/04 06:38:20;;;;;;;7.80;3.70;;;;;;;22.89;46.22;100519.88;117345;1185;24153;-59
2021/09/04 06:40:49;;;;;;;7.50;3.30;;;;;;;23.05;45.41;100519.63;117375;1184;23539;-59
2021/09/04 06:43:17;;;;;;;8.50;4.00;;;;;;;23.24;45.61;100519.88;117323;1185;23475;-59
2021/09/04 06:45:46;;;;;;;13.30;4.00;;;;;;;23.39;45.43;100521.63;117449;1184;22827;-59
2021/09/04 06:48:14;;;;;;;8.90;3.90;;;;;;;23.53;44.92;100522.33;117491;1184;23475;-59
2021/09/04 06:50:43;;;;;;;6.40;3.70;;;;;;;23.65;44.04;100521.21;117408;1185;23447;-66
2021/09/04 06:53:12;;;;;;;9.00;3.80;;;;;;;23.68;43.57;100522.44;117300;1185;23466;-59
2021/09/04 06:55:40;;;;;;;10.10;5.00;;;;;;;23.74;44.11;100524.76;117414;1185;21842;-59
2021/09/04 06:58:08;;;;;;;7.70;3.80;;;;;;;23.86;44.53;100527.55;117353;1185;21842;-69
2021/09/04 07:00:36;;;;;;;12.60;3.60;;;;;;;24.04;44.66;100525.30;117394;1185;21852;-59
2021/09/04 07:03:05;;;;;;;9.70;4.20;;;;;;;24.29;44.36;100523.50;117360;1182;22805;-59
2021/09/04 07:05:33;;;;;;;12.50;4.60;;;;;;;24.49;43.75;100519.79;117348;1185;23566;-67
2021/09/04 07:08:02;;;;;;;9.80;3.90;;;;;;;24.58;43.54;100521.35;117321;1183;22917;-61
2021/09/04 07:10:31;;;;;;;23.10;5.50;;;;;;;24.67;43.68;100521.27;117392;1186;22096;-67
2021/09/04 07:13:00;;;;;;;46.10;7.50;;;;;;;24.82;43.16;100519.88;117385;1185;22911;-59
2021/09/04 07:15:28;;;;;;;7.40;4.20;;;;;;;24.89;42.92;100521.39;117410;1185;23625;-69
2021/09/04 07:17:57;;;;;;;26.40;6.20;;;;;;;24.97;43.08;100522.26;117406;1182;21848;-66
2021/09/04 07:20:25;;;;;;;11.10;4.30;;;;;;;25.13;43.39;100525.80;117346;1183;24154;-60
2021/09/04 07:22:53;;;;;;;9.20;4.70;;;;;;;25.27;43.14;100523.73;117362;1185;21855;-59
2021/09/04 07:25:21;;;;;;;8.50;4.60;;;;;;;25.40;43.04;100519.39;117396;1185;21865;-60
2021/09/04 07:27:49;;;;;;;9.20;4.80;;;;;;;25.74;43.90;100519.98;117397;1185;21894;-59
2021/09/04 07:30:17;;;;;;;10.30;5.00;;;;;;;25.63;42.96;100516.17;117460;1186;23458;-60
2021/09/04 07:32:46;;;;;;;8.60;4.90;;;;;;;25.65;43.20;100514.22;117343;1184;23466;-59
2021/09/04 07:35:14;;;;;;;7.70;5.40;;;;;;;25.80;43.24;100512.02;117369;1185;22629;-59
2021/09/04 07:37:43;;;;;;;7.40;4.50;;;;;;;25.96;43.05;100513.17;117401;1182;23466;-59
2021/09/04 07:40:12;;;;;;;8.70;4.80;;;;;;;26.07;42.63;100511.46;117416;1188;21938;-61
2021/09/04 07:42:40;;;;;;;8.50;5.00;;;;;;;26.09;41.97;100509.68;117356;1183;21844;-59
2021/09/04 07:45:09;;;;;;;17.30;5.40;;;;;;;26.18;42.49;100509.91;117523;1185;23561;-59
2021/09/04 07:47:37;;;;;;;8.60;4.60;;;;;;;26.30;41.67;100503.45;117425;1183;23567;-59
2021/09/04 07:50:05;;;;;;;6.70;4.20;;;;;;;26.54;42.11;100503.08;117403;1185;21821;-67
2021/09/04 07:52:34;;;;;;;12.00;4.80;;;;;;;26.66;40.90;100501.92;117400;1186;23483;-59
2021/09/04 07:55:02;;;;;;;10.10;4.20;;;;;;;26.73;41.15;100498.37;117349;1176;21861;-59
2021/09/04 07:57:30;;;;;;;13.10;4.10;;;;;;;27.03;42.70;100490.58;117393;1182;22886;-68
2021/09/04 07:59:59;;;;;;;5.70;3.90;;;;;;;27.02;42.14;100493.59;117353;1185;23142;-67
2021/09/04 08:02:27;;;;;;;8.30;4.70;;;;;;;27.14;41.51;100485.63;117381;1186;24236;-59
2021/09/04 08:04:56;;;;;;;6.40;4.00;;;;;;;27.25;40.97;100486.87;117470;1186;23458;-68
2021/09/04 08:07:24;;;;;;;7.10;4.20;;;;;;;27.31;41.32;100485.54;117440;1183;22934;-59
2021/09/04 08:09:52;;;;;;;9.80;3.90;;;;;;;27.46;40.74;100481.95;117318;1182;23439;-67
2021/09/04 08:12:21;;;;;;;6.80;3.90;;;;;;;27.61;40.39;100482.52;117369;1185;21857;-59
2021/09/04 08:14:50;;;;;;;6.80;3.80;;;;;;;27.81;40.03;100482.67;117292;1182;23465;-60
2021/09/04 08:17:18;;;;;;;5.80;3.60;;;;;;;27.97;39.57;100483.21;117416;1186;21857;-67
2021/09/04 08:19:47;;;;;;;9.00;3.70;;;;;;;28.00;40.00;100482.92;117383;1186;23441;-59
2021/09/04 08:22:15;;;;;;;7.90;3.50;;;;;;;28.18;39.93;100478.73;117423;1184;21874;-59
2021/09/04 08:24:43;;;;;;;8.90;3.60;;;;;;;28.49;41.04;100478.27;117305;1186;21853;-60
2021/09/04 08:27:12;;;;;;;8.80;3.70;;;;;;;28.64;38.99;100478.38;117431;1183;23460;-67
2021/09/04 08:29:40;;;;;;;6.20;3.40;;;;;;;28.70;39.42;100480.43;117421;1185;21845;-68
2021/09/04 08:32:09;;;;;;;7.80;3.80;;;;;;;28.81;38.72;100478.38;117350;1182;23452;-59
2021/09/04 08:34:40;;;;;;;5.20;3.40;;;;;;;28.81;38.52;100479.48;117154;1188;23441;-60
2021/09/04 08:37:08;;;;;;;41.70;6.30;;;;;;;28.80;38.37;100481.16;117411;1185;21842;-67
2021/09/04 08:39:37;;;;;;;11.00;4.30;;;;;;;28.79;38.62;100485.27;117346;1188;21847;-67
2021/09/04 08:42:05;;;;;;;10.30;3.90;;;;;;;28.78;39.27;100484.95;117359;1185;23008;-59
2021/09/04 08:44:33;;;;;;;7.50;3.90;;;;;;;28.99;38.65;100482.48;117334;1185;24152;-72
2021/09/04 08:47:01;;;;;;;8.00;3.80;;;;;;;29.16;38.88;100482.73;117408;1183;22841;-68
2021/09/04 08:49:30;;;;;;;5.90;3.60;;;;;;;29.15;37.68;100484.61;117416;1186;21854;-59
2021/09/04 08:51:58;;;;;;;5.80;4.00;;;;;;;29.05;39.13;100480.81;117260;1178;21873;-60
2021/09/04 08:54:26;;;;;;;18.00;4.60;;;;;;;29.32;41.27;100478.04;117366;1183;21859;-60
2021/09/04 08:56:54;;;;;;;8.50;3.70;;;;;;;29.44;42.98;100479.32;117378;1183;21854;-67
2021/09/04 08:59:22;;;;;;;28.90;5.80;;;;;;;29.66;45.25;100478.44;117360;1186;21898;-67
2021/09/04 09:01:52;;;;;;;7.90;3.90;;;;;;;29.89;45.01;100476.30;117343;1186;23623;-59
2021/09/04 09:04:22;;;;;;;11.10;4.30;;;;;;;29.85;45.82;100472.89;117292;1185;22085;-59
2021/09/04 09:06:51;;;;;;;7.50;4.30;;;;;;;29.86;47.39;100471.94;117340;1186;21850;-68
2021/09/04 09:09:25;;;;;;;62.80;7.40;;;;;;;30.15;45.35;100470.34;117408;1185;21841;-68
2021/09/04 09:11:55;;;;;;;7.50;4.40;;;;;;;30.28;45.79;100465.55;117420;1184;21866;-60
2021/09/04 09:14:24;;;;;;;10.10;3.80;;;;;;;30.25;44.04;100464.05;117441;1182;21843;-68
2021/09/04 09:16:56;;;;;;;13.70;4.20;;;;;;;30.00;41.14;100474.82;117323;1186;21854;-69
2021/09/04 09:19:26;;;;;;;7.00;4.10;;;;;;;29.65;41.12;100477.27;117392;1186;22916;-68
2021/09/04 09:21:57;;;;;;;5.80;4.00;;;;;;;29.44;41.77;100475.22;117386;1186;23440;-68
2021/09/04 09:24:26;;;;;;;24.70;5.20;;;;;;;29.32;40.00;100475.34;117299;1183;21855;-60
2021/09/04 09:27:00;;;;;;;6.00;4.50;;;;;;;29.15;39.39;100472.20;117476;1185;21855;-68
2021/09/04 09:29:37;;;;;;;7.50;4.10;;;;;;;28.99;40.25;100476.27;117320;1179;24217;-60
2021/09/04 09:32:10;;;;;;;7.10;3.70;;;;;;;28.92;40.64;100474.15;117300;1186;21852;-60
2021/09/04 09:34:43;;;;;;;20.50;4.30;;;;;;;29.01;40.55;100473.55;117451;1184;21862;-68
2021/09/04 09:37:13;;;;;;;7.00;3.80;;;;;;;29.23;39.74;100474.13;117409;1185;23439;-68
2021/09/04 09:39:42;;;;;;;13.30;5.40;;;;;;;29.50;47.66;100470.91;117487;1184;21844;-60
2021/09/04 09:42:12;;;;;;;14.50;4.10;;;;;;;29.62;51.62;100479.40;117387;1186;23449;-68
2021/09/04 09:44:41;;;;;;;11.90;4.80;;;;;;;29.89;54.11;100476.73;117459;1183;21854;-70
2021/09/04 09:47:11;;;;;;;11.40;4.20;;;;;;;29.97;56.20;100479.61;117470;1185;23001;-67
2021/09/04 09:49:45;;;;;;;9.50;4.70;;;;;;;30.20;57.56;100471.02;117404;1186;21885;-59
2021/09/04 09:52:15;;;;;;;7.90;3.80;;;;;;;30.14;58.16;100468.14;117378;1185;23439;-68
2021/09/04 09:54:45;;;;;;;6.30;3.80;;;;;;;30.21;60.48;100464.90;117436;1185;21867;-59
2021/09/04 09:57:13;;;;;;;12.00;4.40;;;;;;;30.10;59.95;100472.99;117359;1186;22620;-60
2021/09/04 09:59:43;;;;;;;9.90;4.10;;;;;;;29.99;58.90;100469.36;117269;1183;23544;-70
2021/09/04 10:02:14;;;;;;;7.30;4.60;;;;;;;29.65;60.56;100464.66;117369;1186;21856;-68
2021/09/04 10:04:46;;;;;;;7.70;4.50;;;;;;;29.38;60.58;100463.30;117466;1186;21861;-59
2021/09/04 10:07:15;;;;;;;10.00;4.50;;;;;;;29.17;60.55;100462.05;117400;1185;21854;-62
2021/09/04 10:09:43;;;;;;;6.70;4.20;;;;;;;29.02;60.83;100462.48;117262;1186;24159;-59
2021/09/04 10:12:11;;;;;;;12.30;4.90;;;;;;;29.01;61.20;100462.19;117456;1182;21845;-67
2021/09/04 10:14:40;;;;;;;7.30;4.40;;;;;;;28.96;61.19;100465.21;117303;1186;22515;-68
2021/09/04 10:17:28;;;;;;;7.10;4.10;;;;;;;29.04;61.54;100463.73;117452;1185;21888;-67
2021/09/04 10:19:57;;;;;;;18.00;4.90;;;;;;;29.11;61.03;100467.48;117241;1185;23441;-70
2021/09/04 10:22:44;;;;;;;8.40;3.90;;;;;;;28.86;60.83;100477.59;117285;1182;24130;-69
2021/09/04 10:25:14;;;;;;;21.90;5.50;;;;;;;28.75;60.38;100478.79;117326;1185;21868;-69
2021/09/04 10:27:43;;;;;;;11.70;4.80;;;;;;;28.51;60.67;100471.63;118432;1185;22058;-67
2021/09/04 10:30:33;;;;;;;13.40;5.60;;;;;;;28.27;60.49;100464.59;118042;1182;22985;-59
2021/09/04 10:33:06;;;;;;;8.00;4.90;;;;;;;28.16;60.27;100466.95;117369;1182;21872;-67
2021/09/04 10:35:50;;;;;;;20.60;5.60;;;;;;;27.93;60.07;100472.47;117293;1186;24176;-67
2021/09/04 10:38:18;;;;;;;7.90;4.60;;;;;;;27.75;60.20;100472.22;117383;1185;23442;-66
2021/09/04 10:40:47;;;;;;;10.00;4.50;;;;;;;27.62;60.46;100471.12;117344;1185;21857;-68
2021/09/04 10:43:18;;;;;;;6.50;4.30;;;;;;;27.74;60.56;100474.99;117378;1177;23685;-71
2021/09/04 10:45:48;;;;;;;9.10;4.60;;;;;;;27.82;60.44;100476.20;117429;1186;21918;-59
2021/09/04 10:48:21;;;;;;;7.10;4.40;;;;;;;27.67;60.26;100473.95;117252;1186;23477;-59
2021/09/04 10:51:11;;;;;;;16.80;5.10;;;;;;;27.90;61.41;100472.79;117378;1185;21858;-60
2021/09/04 10:53:51;;;;;;;8.50;4.70;;;;;;;27.68;61.47;100470.60;117433;1185;23451;-67
2021/09/04 10:56:23;;;;;;;;;;;;;;;27.61;62.29;100468.52;117357;1185;21971;-67
2021/09/04 10:58:52;;;;;;;10.80;4.30;;;;;;;27.49;62.77;100471.97;117393;1185;22890;-59
2021/09/04 11:01:52;;;;;;;7.60;4.70;;;;;;;27.32;62.76;100472.24;117397;1180;22917;-66
2021/09/04 11:04:21;;;;;;;15.10;6.60;;;;;;;27.43;62.83;100466.67;117316;1182;23181;-67
2021/09/04 11:06:49;;;;;;;7.90;4.90;;;;;;;27.77;60.81;100464.26;117305;1185;21865;-59
2021/09/04 11:09:18;;;;;;;9.00;5.30;;;;;;;28.02;60.32;100468.36;117457;1182;21838;-69
2021/09/04 11:11:46;;;;;;;6.70;4.70;;;;;;;28.22;59.51;100467.79;117385;1184;21857;-60
2021/09/04 11:14:14;;;;;;;17.60;6.30;;;;;;;28.35;60.86;100459.27;117468;1182;23451;-70
2021/09/04 11:16:45;;;;;;;6.60;4.70;;;;;;;28.55;61.69;100457.58;117332;1185;23468;-59
2021/09/04 11:19:17;;;;;;;8.10;4.60;;;;;;;28.78;62.47;100452.48;117359;1182;22718;-59
2021/09/04 11:21:47;;;;;;;9.40;5.80;;;;;;;28.86;63.30;100456.73;117312;1183;21868;-59
2021/09/04 11:24:20;;;;;;;7.60;4.70;;;;;;;29.06;63.77;100466.09;117375;1183;22460;-60
2021/09/04 11:26:53;;;;;;;7.80;5.00;;;;;;;29.06;63.14;100468.49;117380;1184;22959;-59